sensor_id;sensor_type;location;lat;lon;timestamp;pressure;altitude;pressure_sealevel;temperature;humidity
59987;BME280;46181;51.498;5.392;2022-10-03T00:02:52;102484.7;;;13.44;63.2627
59987;BME280;46181;51.498;5.392;2022-10-03T00:07:20;102487.6;;;13.42;63.16016
59987;BME280;46181;51.498;5.392;2022-10-03T00:11:51;102485.2;;;13.43;63.14844
59987;BME280;46181;51.498;5.392;2022-10-03T00:16:18;102481.8;;;13.38;63.15332
59987;BME280;46181;51.498;5.392;2022-10-03T00:20:50;102476.4;;;13.36;63.17188
59987;BME280;46181;51.498;5.392;2022-10-03T00:25:25;102483.4;;;13.3;63.2666
59987;BME280;46181;51.498;5.392;2022-10-03T00:29:55;102491.6;;;13.28;63.30859
59987;BME280;46181;51.498;5.392;2022-10-03T00:34:18;102493.7;;;13.28;63.25098
59987;BME280;46181;51.498;5.392;2022-10-03T00:38:57;102494;;;13.22;63.31152
59987;BME280;46181;51.498;5.392;2022-10-03T00:43:30;102500.7;;;13.17;63.39551
59987;BME280;46181;51.498;5.392;2022-10-03T00:52:28;102516.6;;;13.12;63.47754
59987;BME280;46181;51.498;5.392;2022-10-03T00:57:01;102515.1;;;13.09;63.36035
59987;BME280;46181;51.498;5.392;2022-10-03T01:01:27;102519.2;;;13.09;63.25879
59987;BME280;46181;51.498;5.392;2022-10-03T01:05:51;102517.2;;;13.01;63.44922
59987;BME280;46181;51.498;5.392;2022-10-03T01:10:16;102523.2;;;13;63.39258
59987;BME280;46181;51.498;5.392;2022-10-03T01:15:07;102534.3;;;12.93;63.5293
59987;BME280;46181;51.498;5.392;2022-10-03T01:19:25;102534.7;;;12.92;63.45996
59987;BME280;46181;51.498;5.392;2022-10-03T01:28:32;102544.7;;;12.87;63.48828
59987;BME280;46181;51.498;5.392;2022-10-03T01:32:46;102544.7;;;12.83;63.50391
59987;BME280;46181;51.498;5.392;2022-10-03T01:37:16;102546.2;;;12.83;63.46973
59987;BME280;46181;51.498;5.392;2022-10-03T01:41:48;102547.3;;;12.81;63.51172
59987;BME280;46181;51.498;5.392;2022-10-03T01:46:18;102547.1;;;12.81;63.46582
59987;BME280;46181;51.498;5.392;2022-10-03T01:50:47;102548.6;;;12.79;63.44141
59987;BME280;46181;51.498;5.392;2022-10-03T01:55:17;102545.9;;;12.75;63.4248
59987;BME280;46181;51.498;5.392;2022-10-03T01:59:51;102541.2;;;12.7;63.55176
59987;BME280;46181;51.498;5.392;2022-10-03T02:04:16;102545.8;;;12.74;63.50195
59987;BME280;46181;51.498;5.392;2022-10-03T02:08:54;102541.8;;;12.67;63.59375
59987;BME280;46181;51.498;5.392;2022-10-03T02:13:16;102551.3;;;12.71;63.50781
59987;BME280;46181;51.498;5.392;2022-10-03T02:17:54;102552.8;;;12.68;63.52734
59987;BME280;46181;51.498;5.392;2022-10-03T02:27:03;102554.4;;;12.61;63.59668
59987;BME280;46181;51.498;5.392;2022-10-03T02:31:41;102551.7;;;12.58;63.60254
59987;BME280;46181;51.498;5.392;2022-10-03T02:36:10;102551.6;;;12.47;63.83594
59987;BME280;46181;51.498;5.392;2022-10-03T02:40:30;102555.3;;;12.5;63.76074
59987;BME280;46181;51.498;5.392;2022-10-03T02:45:02;102557.2;;;12.43;63.81738
59987;BME280;46181;51.498;5.392;2022-10-03T02:58:33;102552;;;12.39;63.70117
59987;BME280;46181;51.498;5.392;2022-10-03T03:12:04;102550.7;;;12.31;63.7334
59987;BME280;46181;51.498;5.392;2022-10-03T03:16:29;102551;;;12.27;63.75
59987;BME280;46181;51.498;5.392;2022-10-03T03:20:55;102554.7;;;12.28;63.65039
59987;BME280;46181;51.498;5.392;2022-10-03T03:25:28;102555.6;;;12.25;63.65625
59987;BME280;46181;51.498;5.392;2022-10-03T03:29:49;102560.1;;;12.25;63.64453
59987;BME280;46181;51.498;5.392;2022-10-03T03:34:17;102556.3;;;12.23;63.5957
59987;BME280;46181;51.498;5.392;2022-10-03T03:38:50;102560.5;;;12.18;63.70215
59987;BME280;46181;51.498;5.392;2022-10-03T03:43:30;102562.7;;;12.12;63.80566
59987;BME280;46181;51.498;5.392;2022-10-03T03:47:49;102557.3;;;12.14;63.73047
59987;BME280;46181;51.498;5.392;2022-10-03T03:52:23;102565.5;;;12.13;63.70703
59987;BME280;46181;51.498;5.392;2022-10-03T03:57:09;102563;;;12.08;63.82324
59987;BME280;46181;51.498;5.392;2022-10-03T04:01:28;102567.8;;;12.07;63.85547
59987;BME280;46181;51.498;5.392;2022-10-03T04:05:56;102572.3;;;12.05;63.83203
59987;BME280;46181;51.498;5.392;2022-10-03T04:10:26;102573;;;12.05;63.77441
59987;BME280;46181;51.498;5.392;2022-10-03T04:15:03;102577.3;;;12.04;63.80664
59987;BME280;46181;51.498;5.392;2022-10-03T04:19:15;102580.7;;;12.05;63.74023
59987;BME280;46181;51.498;5.392;2022-10-03T04:23:55;102582.7;;;12.02;63.78125
59987;BME280;46181;51.498;5.392;2022-10-03T04:37:25;102586.6;;;11.99;63.85449
59987;BME280;46181;51.498;5.392;2022-10-03T04:41:52;102588.9;;;12.03;63.77148
59987;BME280;46181;51.498;5.392;2022-10-03T04:46:28;102573.7;;;11.98;63.91016
59987;BME280;46181;51.498;5.392;2022-10-03T04:50:49;102578;;;12.06;63.82031
59987;BME280;46181;51.498;5.392;2022-10-03T04:55:19;102576;;;12.16;63.76855
59987;BME280;46181;51.498;5.392;2022-10-03T04:59:45;102571.7;;;12.21;63.54785
59987;BME280;46181;51.498;5.392;2022-10-03T05:04:18;102577.6;;;12.18;63.56641
59987;BME280;46181;51.498;5.392;2022-10-03T05:08:47;102582.5;;;12.17;63.55371
59987;BME280;46181;51.498;5.392;2022-10-03T05:13:16;102588.4;;;12.19;63.44531
59987;BME280;46181;51.498;5.392;2022-10-03T05:17:51;102594.7;;;12.11;63.58008
59987;BME280;46181;51.498;5.392;2022-10-03T05:22:13;102594.9;;;12.15;63.47266
59987;BME280;46181;51.498;5.392;2022-10-03T05:26:52;102603.5;;;12.08;63.5752
59987;BME280;46181;51.498;5.392;2022-10-03T05:31:33;102602.2;;;12.02;63.6123
59987;BME280;46181;51.498;5.392;2022-10-03T05:35:54;102608.3;;;11.99;63.69727
59987;BME280;46181;51.498;5.392;2022-10-03T05:40:17;102614;;;12.01;63.61133
59987;BME280;46181;51.498;5.392;2022-10-03T05:44:49;102617.8;;;11.98;63.72949
59987;BME280;46181;51.498;5.392;2022-10-03T05:49:21;102622.9;;;12.04;63.87402
59987;BME280;46181;51.498;5.392;2022-10-03T05:54:15;102617.8;;;12.05;63.89746
59987;BME280;46181;51.498;5.392;2022-10-03T06:07:22;102624.1;;;12.3;63.68652
59987;BME280;46181;51.498;5.392;2022-10-03T06:11:57;102628.9;;;12.39;63.66602
59987;BME280;46181;51.498;5.392;2022-10-03T06:16:24;102627.2;;;12.54;63.53027
59987;BME280;46181;51.498;5.392;2022-10-03T06:30:06;102640;;;12.9;63.17383
59987;BME280;46181;51.498;5.392;2022-10-03T06:34:39;102644.9;;;12.89;63.08398
59987;BME280;46181;51.498;5.392;2022-10-03T06:43:36;102638.4;;;12.89;63.43262
59987;BME280;46181;51.498;5.392;2022-10-03T06:48:00;102645.3;;;13.01;63.58496
59987;BME280;46181;51.498;5.392;2022-10-03T06:52:34;102639.3;;;13.2;63.45605
59987;BME280;46181;51.498;5.392;2022-10-03T06:57:00;102647;;;13.36;63.46777
59987;BME280;46181;51.498;5.392;2022-10-03T07:06:13;102659.1;;;13.69;63.43652
59987;BME280;46181;51.498;5.392;2022-10-03T07:15:11;102660.3;;;14.04;63.15723
59987;BME280;46181;51.498;5.392;2022-10-03T07:19:27;102653.6;;;14.21;63.14941
59987;BME280;46181;51.498;5.392;2022-10-03T07:24:02;102657.3;;;14.44;62.96582
59987;BME280;46181;51.498;5.392;2022-10-03T07:28:36;102667.7;;;14.66;62.90625
59987;BME280;46181;51.498;5.392;2022-10-03T07:33:06;102669.1;;;14.85;62.86523
59987;BME280;46181;51.498;5.392;2022-10-03T07:37:29;102671.9;;;15.08;62.73828
59987;BME280;46181;51.498;5.392;2022-10-03T07:42:02;102675.9;;;15.31;62.5791
59987;BME280;46181;51.498;5.392;2022-10-03T07:46:44;102677.6;;;15.51;62.59473
59987;BME280;46181;51.498;5.392;2022-10-03T07:51:06;102689;;;15.74;62.35547
59987;BME280;46181;51.498;5.392;2022-10-03T07:55:26;102688.6;;;15.99;62.21973
59987;BME280;46181;51.498;5.392;2022-10-03T08:00:06;102690.7;;;16.24;61.98047
59987;BME280;46181;51.498;5.392;2022-10-03T08:04:42;102698.8;;;16.39;62.15137
59987;BME280;46181;51.498;5.392;2022-10-03T08:13:22;102697;;;16.81;61.81055
59987;BME280;46181;51.498;5.392;2022-10-03T08:22:23;102689.7;;;17.17;61.70117
59987;BME280;46181;51.498;5.392;2022-10-03T08:26:53;102686.9;;;17.37;61.5918
59987;BME280;46181;51.498;5.392;2022-10-03T08:31:26;102685.3;;;17.54;61.57031
59987;BME280;46181;51.498;5.392;2022-10-03T08:40:44;102691;;;17.92;61.47266
59987;BME280;46181;51.498;5.392;2022-10-03T08:45:11;102697.6;;;18.1;61.37305
59987;BME280;46181;51.498;5.392;2022-10-03T08:49:39;102693.8;;;18.25;61.29004
59987;BME280;46181;51.498;5.392;2022-10-03T09:03:02;102701.8;;;18.92;60.93555
59987;BME280;46181;51.498;5.392;2022-10-03T09:07:29;102696;;;19.09;60.72949
59987;BME280;46181;51.498;5.392;2022-10-03T09:16:41;102702.9;;;19.42;60.6377
59987;BME280;46181;51.498;5.392;2022-10-03T09:25:25;102696.4;;;19.92;60.34863
59987;BME280;46181;51.498;5.392;2022-10-03T09:34:35;102692.7;;;20.5;59.77051
59987;BME280;46181;51.498;5.392;2022-10-03T09:39:06;102685.5;;;20.75;59.46973
59987;BME280;46181;51.498;5.392;2022-10-03T09:43:40;102680.7;;;21.02;59.08008
59987;BME280;46181;51.498;5.392;2022-10-03T09:48:04;102670.1;;;21.07;58.96094
59987;BME280;46181;51.498;5.392;2022-10-03T09:52:23;102675.3;;;21.02;58.76953
59987;BME280;46181;51.498;5.392;2022-10-03T09:57:01;102670.7;;;20.91;59.05566
59987;BME280;46181;51.498;5.392;2022-10-03T10:01:22;102674.4;;;21.01;58.98633
59987;BME280;46181;51.498;5.392;2022-10-03T10:07:04;102666.2;;;21.03;59.19629
59987;BME280;46181;51.498;5.392;2022-10-03T10:11:28;102667.4;;;21.14;58.34668
59987;BME280;46181;51.498;5.392;2022-10-03T10:16:15;102661.9;;;21.12;58.26367
59987;BME280;46181;51.498;5.392;2022-10-03T10:20:28;102665.4;;;21.11;57.8584
59987;BME280;46181;51.498;5.392;2022-10-03T10:38:26;102657.5;;;20.94;58.02148
59987;BME280;46181;51.498;5.392;2022-10-03T10:47:44;102660;;;21.17;57.47461
59987;BME280;46181;51.498;5.392;2022-10-03T10:52:19;102665.3;;;21.24;57.28809
59987;BME280;46181;51.498;5.392;2022-10-03T11:01:05;102669.7;;;21.27;56.80566
59987;BME280;46181;51.498;5.392;2022-10-03T11:05:35;102664.9;;;21.2;56.78613
59987;BME280;46181;51.498;5.392;2022-10-03T11:14:41;102668.8;;;20.99;57.08203
59987;BME280;46181;51.498;5.392;2022-10-03T11:23:36;102655.2;;;20.98;56.83789
59987;BME280;46181;51.498;5.392;2022-10-03T11:28:15;102645.4;;;20.87;57.01953
59987;BME280;46181;51.498;5.392;2022-10-03T11:32:41;102644.8;;;20.97;56.86133
59987;BME280;46181;51.498;5.392;2022-10-03T11:37:01;102637.2;;;21.11;56.55469
59987;BME280;46181;51.498;5.392;2022-10-03T11:41:20;102640.5;;;21.22;56.41992
59987;BME280;46181;51.498;5.392;2022-10-03T11:45:50;102638.6;;;21.35;56.22754
59987;BME280;46181;51.498;5.392;2022-10-03T11:50:32;102641.1;;;21.42;56.09863
59987;BME280;46181;51.498;5.392;2022-10-03T11:54:46;102637.5;;;21.67;55.64355
59987;BME280;46181;51.498;5.392;2022-10-03T11:59:44;102640.9;;;21.68;55.41406
59987;BME280;46181;51.498;5.392;2022-10-03T12:03:50;102638.9;;;21.8;55.00098
59987;BME280;46181;51.498;5.392;2022-10-03T12:08:25;102639.2;;;21.82;54.88867
59987;BME280;46181;51.498;5.392;2022-10-03T12:12:49;102639.6;;;22;54.71387
59987;BME280;46181;51.498;5.392;2022-10-03T12:17:20;102639.3;;;22.17;54.29492
59987;BME280;46181;51.498;5.392;2022-10-03T12:21:52;102636.7;;;22.42;53.87402
59987;BME280;46181;51.498;5.392;2022-10-03T12:26:16;102633;;;22.81;53.45801
59987;BME280;46181;51.498;5.392;2022-10-03T12:30:48;102625.6;;;23.12;52.87891
59987;BME280;46181;51.498;5.392;2022-10-03T12:35:28;102618.5;;;23.25;52.47656
59987;BME280;46181;51.498;5.392;2022-10-03T12:39:50;102620.8;;;23.38;52.29395
59987;BME280;46181;51.498;5.392;2022-10-03T12:44:23;102614.4;;;23.44;52.24219
59987;BME280;46181;51.498;5.392;2022-10-03T12:48:54;102608.2;;;23.53;51.94043
59987;BME280;46181;51.498;5.392;2022-10-03T12:53:32;102605.7;;;23.61;51.87988
59987;BME280;46181;51.498;5.392;2022-10-03T12:57:54;102611.5;;;23.79;51.71484
59987;BME280;46181;51.498;5.392;2022-10-03T13:02:35;102608.8;;;23.86;51.61719
59987;BME280;46181;51.498;5.392;2022-10-03T13:07:02;102608.9;;;23.92;51.22949
59987;BME280;46181;51.498;5.392;2022-10-03T13:11:27;102607.4;;;23.87;51.3291
59987;BME280;46181;51.498;5.392;2022-10-03T13:15:58;102601.4;;;23.87;51.28223
59987;BME280;46181;51.498;5.392;2022-10-03T13:20:19;102597.5;;;23.84;50.80176
59987;BME280;46181;51.498;5.392;2022-10-03T13:24:48;102591.4;;;23.71;50.98438
59987;BME280;46181;51.498;5.392;2022-10-03T13:29:27;102587;;;23.44;51.25684
59987;BME280;46181;51.498;5.392;2022-10-03T13:33:50;102579.1;;;23.37;51.36523
59987;BME280;46181;51.498;5.392;2022-10-03T13:38:24;102572.9;;;23.41;51.58887
59987;BME280;46181;51.498;5.392;2022-10-03T13:42:46;102574.5;;;23.48;50.78516
59987;BME280;46181;51.498;5.392;2022-10-03T13:47:33;102571.6;;;23.5;50.43848
59987;BME280;46181;51.498;5.392;2022-10-03T13:51:50;102577;;;23.58;49.87793
59987;BME280;46181;51.498;5.392;2022-10-03T13:56:19;102566.9;;;23.61;50.32324
59987;BME280;46181;51.498;5.392;2022-10-03T14:00:57;102566.9;;;23.61;50.0791
59987;BME280;46181;51.498;5.392;2022-10-03T14:05:29;102564.3;;;23.64;50.30273
59987;BME280;46181;51.498;5.392;2022-10-03T14:10:01;102566.4;;;23.72;49.76465
59987;BME280;46181;51.498;5.392;2022-10-03T14:14:30;102569.4;;;23.72;49.90527
59987;BME280;46181;51.498;5.392;2022-10-03T14:18:55;102570.7;;;23.78;49.77246
59987;BME280;46181;51.498;5.392;2022-10-03T14:23:23;102558.5;;;23.84;49.75488
59987;BME280;46181;51.498;5.392;2022-10-03T14:27:58;102560;;;23.86;49.79199
59987;BME280;46181;51.498;5.392;2022-10-03T14:32:22;102557.5;;;23.87;49.52637
59987;BME280;46181;51.498;5.392;2022-10-03T14:36:48;102540.9;;;23.9;49.5293
59987;BME280;46181;51.498;5.392;2022-10-03T14:41:18;102538;;;23.85;49.05859
59987;BME280;46181;51.498;5.392;2022-10-03T14:45:47;102532.9;;;23.73;49.16211
59987;BME280;46181;51.498;5.392;2022-10-03T14:50:22;102537.7;;;23.63;49.2793
59987;BME280;46181;51.498;5.392;2022-10-03T14:54:45;102527.7;;;23.64;49.55859
59987;BME280;46181;51.498;5.392;2022-10-03T14:59:21;102534;;;23.55;49.74609
59987;BME280;46181;51.498;5.392;2022-10-03T15:03:50;102528.2;;;23.49;49.63477
59987;BME280;46181;51.498;5.392;2022-10-03T15:08:20;102521.6;;;23.43;49.7334
59987;BME280;46181;51.498;5.392;2022-10-03T15:12:45;102513.2;;;23.4;50.01953
59987;BME280;46181;51.498;5.392;2022-10-03T15:17:25;102514.8;;;23.28;50.13477
59987;BME280;46181;51.498;5.392;2022-10-03T15:21:46;102510.1;;;23.28;50.32031
59987;BME280;46181;51.498;5.392;2022-10-03T15:26:17;102499.8;;;23.22;50.2334
59987;BME280;46181;51.498;5.392;2022-10-03T15:30:46;102500.6;;;23.16;49.59766
59987;BME280;46181;51.498;5.392;2022-10-03T15:35:17;102495.2;;;23.07;49.68164
59987;BME280;46181;51.498;5.392;2022-10-03T15:39:46;102490.7;;;23;49.56934
59987;BME280;46181;51.498;5.392;2022-10-03T15:44:24;102477.1;;;22.85;49.29785
59987;BME280;46181;51.498;5.392;2022-10-03T15:48:45;102475.2;;;22.83;49.01758
59987;BME280;46181;51.498;5.392;2022-10-03T15:53:18;102466.6;;;22.78;48.59375
59987;BME280;46181;51.498;5.392;2022-10-03T15:57:48;102457.6;;;22.74;49.27344
59987;BME280;46181;51.498;5.392;2022-10-03T16:02:18;102457.5;;;22.72;49.45605
59987;BME280;46181;51.498;5.392;2022-10-03T16:06:48;102462;;;22.58;49.28027
59987;BME280;46181;51.498;5.392;2022-10-03T16:11:22;102461.5;;;22.38;49.80176
59987;BME280;46181;51.498;5.392;2022-10-03T16:20:24;102454.5;;;21.97;49.90723
59987;BME280;46181;51.498;5.392;2022-10-03T16:24:53;102453.9;;;21.84;50.32129
59987;BME280;46181;51.498;5.392;2022-10-03T16:29:21;102464.8;;;21.69;50.75586
59987;BME280;46181;51.498;5.392;2022-10-03T16:33:48;102458.6;;;21.62;51.56836
59987;BME280;46181;51.498;5.392;2022-10-03T16:38:23;102460.5;;;21.49;51.59961
59987;BME280;46181;51.498;5.392;2022-10-03T16:42:49;102457.2;;;21.32;52.1123
59987;BME280;46181;51.498;5.392;2022-10-03T16:47:15;102446.6;;;21.2;52.53711
59987;BME280;46181;51.498;5.392;2022-10-03T16:51:48;102450.5;;;21;52.97461
59987;BME280;46181;51.498;5.392;2022-10-03T16:56:17;102442;;;20.82;53.2998
59987;BME280;46181;51.498;5.392;2022-10-03T17:00:53;102444;;;20.59;53.86035
59987;BME280;46181;51.498;5.392;2022-10-03T17:05:16;102447.5;;;20.43;54.03809
59987;BME280;46181;51.498;5.392;2022-10-03T17:09:48;102442.4;;;20.22;54.51855
59987;BME280;46181;51.498;5.392;2022-10-03T17:14:16;102439;;;20.09;54.7334
59987;BME280;46181;51.498;5.392;2022-10-03T17:18:55;102433.9;;;19.96;54.99414
59987;BME280;46181;51.498;5.392;2022-10-03T17:23:22;102434.6;;;19.93;55.2666
59987;BME280;46181;51.498;5.392;2022-10-03T17:27:46;102435.8;;;19.96;55.39746
59987;BME280;46181;51.498;5.392;2022-10-03T17:32:22;102443.5;;;19.92;55.64551
59987;BME280;46181;51.498;5.392;2022-10-03T17:37:00;102439;;;19.86;55.98242
59987;BME280;46181;51.498;5.392;2022-10-03T17:41:22;102431.3;;;19.87;55.85742
59987;BME280;46181;51.498;5.392;2022-10-03T17:45:52;102436.4;;;19.86;55.87988
59987;BME280;46181;51.498;5.392;2022-10-03T17:50:21;102432;;;19.81;55.98828
59987;BME280;46181;51.498;5.392;2022-10-03T17:54:46;102422.9;;;19.82;55.89648
59987;BME280;46181;51.498;5.392;2022-10-03T17:59:22;102427.3;;;19.71;56.27344
59987;BME280;46181;51.498;5.392;2022-10-03T18:03:48;102423.2;;;19.69;56.29492
59987;BME280;46181;51.498;5.392;2022-10-03T18:08:21;102414;;;19.57;56.3252
59987;BME280;46181;51.498;5.392;2022-10-03T18:12:47;102418.4;;;19.44;56.48145
59987;BME280;46181;51.498;5.392;2022-10-03T18:17:22;102431.3;;;19.3;56.79688
59987;BME280;46181;51.498;5.392;2022-10-03T18:22:03;102431.7;;;19.18;57.02344
59987;BME280;46181;51.498;5.392;2022-10-03T18:26:24;102420.8;;;19.15;56.93848
59987;BME280;46181;51.498;5.392;2022-10-03T18:30:54;102424.3;;;19.05;56.92578
59987;BME280;46181;51.498;5.392;2022-10-03T18:35:19;102428.4;;;19.01;57.11621
59987;BME280;46181;51.498;5.392;2022-10-03T18:39:46;102425.3;;;19.02;57.11719
59987;BME280;46181;51.498;5.392;2022-10-03T18:44:21;102426.1;;;18.97;57.22461
59987;BME280;46181;51.498;5.392;2022-10-03T18:53:23;102421.2;;;18.95;57.38379
59987;BME280;46181;51.498;5.392;2022-10-03T18:57:48;102426.8;;;18.97;57.43164
59987;BME280;46181;51.498;5.392;2022-10-03T19:02:24;102415.8;;;18.9;57.58398
59987;BME280;46181;51.498;5.392;2022-10-03T19:06:49;102416.6;;;18.87;57.40723
59987;BME280;46181;51.498;5.392;2022-10-03T19:11:20;102418.4;;;18.76;57.56543
59987;BME280;46181;51.498;5.392;2022-10-03T19:20:26;102406.8;;;18.49;57.70215
59987;BME280;46181;51.498;5.392;2022-10-03T19:24:47;102398.9;;;18.42;57.64844
59987;BME280;46181;51.498;5.392;2022-10-03T19:29:18;102384.6;;;18.29;57.74707
59987;BME280;46181;51.498;5.392;2022-10-03T19:33:51;102383.4;;;18.2;57.90527
59987;BME280;46181;51.498;5.392;2022-10-03T19:38:23;102380.2;;;18.1;58.10938
59987;BME280;46181;51.498;5.392;2022-10-03T19:42:48;102373.5;;;18.1;58.0752
59987;BME280;46181;51.498;5.392;2022-10-03T19:47:23;102372.7;;;18.04;58.22949
59987;BME280;46181;51.498;5.392;2022-10-03T19:51:45;102367.5;;;18.06;58.21973
59987;BME280;46181;51.498;5.392;2022-10-03T19:56:22;102367.1;;;18.05;58.29785
59987;BME280;46181;51.498;5.392;2022-10-03T20:00:51;102380;;;18.1;58.29395
59987;BME280;46181;51.498;5.392;2022-10-03T20:05:21;102383.8;;;18.13;58.2959
59987;BME280;46181;51.498;5.392;2022-10-03T20:09:53;102400.1;;;18.13;58.57031
59987;BME280;46181;51.498;5.392;2022-10-03T20:14:16;102397.9;;;18.17;58.52051
59987;BME280;46181;51.498;5.392;2022-10-03T20:18:45;102395.2;;;18.22;58.41309
59987;BME280;46181;51.498;5.392;2022-10-03T20:23:16;102394.9;;;18.27;58.41895
59987;BME280;46181;51.498;5.392;2022-10-03T20:27:48;102384.9;;;18.3;58.41113
59987;BME280;46181;51.498;5.392;2022-10-03T20:32:21;102391.7;;;18.28;58.51074
59987;BME280;46181;51.498;5.392;2022-10-03T20:36:46;102392;;;18.34;58.50781
59987;BME280;46181;51.498;5.392;2022-10-03T20:41:19;102393.5;;;18.35;58.54395
59987;BME280;46181;51.498;5.392;2022-10-03T20:45:45;102391.4;;;18.37;58.47852
59987;BME280;46181;51.498;5.392;2022-10-03T20:50:21;102384.8;;;18.36;58.55664
59987;BME280;46181;51.498;5.392;2022-10-03T20:54:56;102380.5;;;18.32;58.71289
59987;BME280;46181;51.498;5.392;2022-10-03T20:59:17;102376.4;;;18.37;58.55664
59987;BME280;46181;51.498;5.392;2022-10-03T21:04:00;102373;;;18.36;58.69434
59987;BME280;46181;51.498;5.392;2022-10-03T21:08:24;102373.3;;;18.35;58.84082
59987;BME280;46181;51.498;5.392;2022-10-03T21:12:48;102381.6;;;18.37;58.83203
59987;BME280;46181;51.498;5.392;2022-10-03T21:17:21;102376.3;;;18.35;58.91016
59987;BME280;46181;51.498;5.392;2022-10-03T21:21:49;102376.3;;;18.38;58.85742
59987;BME280;46181;51.498;5.392;2022-10-03T21:26:15;102375.5;;;18.37;58.95801
59987;BME280;46181;51.498;5.392;2022-10-03T21:31:03;102371.5;;;18.31;59.01953
59987;BME280;46181;51.498;5.392;2022-10-03T21:35:22;102365.3;;;18.32;58.90723
59987;BME280;46181;51.498;5.392;2022-10-03T21:39:54;102365.4;;;18.28;58.96973
59987;BME280;46181;51.498;5.392;2022-10-03T21:44:38;102365.5;;;18.15;59.2959
59987;BME280;46181;51.498;5.392;2022-10-03T21:48:56;102358.2;;;18.21;59.0752
59987;BME280;46181;51.498;5.392;2022-10-03T21:53:22;102352.3;;;18.14;59.24902
59987;BME280;46181;51.498;5.392;2022-10-03T21:57:53;102341.1;;;18.09;59.24121
59987;BME280;46181;51.498;5.392;2022-10-03T22:02:20;102334.8;;;18.03;59.08691
59987;BME280;46181;51.498;5.392;2022-10-03T22:06:48;102336.3;;;17.94;59.17676
59987;BME280;46181;51.498;5.392;2022-10-03T22:11:24;102333.8;;;17.83;59.33203
59987;BME280;46181;51.498;5.392;2022-10-03T22:15:52;102325;;;17.71;59.4209
59987;BME280;46181;51.498;5.392;2022-10-03T22:20:23;102331.9;;;17.57;59.68652
59987;BME280;46181;51.498;5.392;2022-10-03T22:24:54;102322.3;;;17.48;59.84668
59987;BME280;46181;51.498;5.392;2022-10-03T22:29:19;102323.3;;;17.43;59.89844
59987;BME280;46181;51.498;5.392;2022-10-03T22:33:54;102314;;;17.35;60.03516
59987;BME280;46181;51.498;5.392;2022-10-03T22:38:16;102306.2;;;17.35;59.94434
59987;BME280;46181;51.498;5.392;2022-10-03T22:42:48;102302.8;;;17.31;59.89258
59987;BME280;46181;51.498;5.392;2022-10-03T22:47:18;102297.1;;;17.3;59.90234
59987;BME280;46181;51.498;5.392;2022-10-03T22:51:46;102289.5;;;17.29;59.85449
59987;BME280;46181;51.498;5.392;2022-10-03T22:56:37;102286.7;;;17.15;60.20215
59987;BME280;46181;51.498;5.392;2022-10-03T23:00:47;102278.8;;;17.25;59.83789
59987;BME280;46181;51.498;5.392;2022-10-03T23:05:19;102267.1;;;17.18;59.90918
59987;BME280;46181;51.498;5.392;2022-10-03T23:09:51;102269.7;;;17.17;59.96582
59987;BME280;46181;51.498;5.392;2022-10-03T23:14:21;102270.6;;;17.17;60.13672
59987;BME280;46181;51.498;5.392;2022-10-03T23:19:06;102265.1;;;17.1;60.33301
59987;BME280;46181;51.498;5.392;2022-10-03T23:23:21;102258.7;;;17.19;60.14063
59987;BME280;46181;51.498;5.392;2022-10-03T23:28:07;102259.7;;;17.17;60.2627
59987;BME280;46181;51.498;5.392;2022-10-03T23:32:16;102257.3;;;17.27;60.06934
59987;BME280;46181;51.498;5.392;2022-10-03T23:37:21;102267.7;;;17.19;60.51758
59987;BME280;46181;51.498;5.392;2022-10-03T23:41:26;102268.6;;;17.32;60.20313
59987;BME280;46181;51.498;5.392;2022-10-03T23:45:45;102272.5;;;17.34;60.16016
59987;BME280;46181;51.498;5.392;2022-10-03T23:50:17;102277.8;;;17.38;60.21094
59987;BME280;46181;51.498;5.392;2022-10-03T23:54:45;102275.3;;;17.41;60.14551
59987;BME280;46181;51.498;5.392;2022-10-03T23:59:25;102275;;;17.35;60.26367
